Aérodrome :
LOGIN :

S'inscrire | Disclaimer

   EN    FR    IT 

 










Légende :    VFR   VFR Marginal   IFR   IFR Intensif   IFR Très Intensif
Visi : 
Plafond : 
>= 8 km
>= 3000ft
5 à 8 km
1000 à 3000 ft
1500m à 5 km
500 à 1000 ft
800 à 1500m
200 à 500 ft
< 800m
< 200 ft
Symboles :   Orages  Brouillard  Fortes neiges  Fortes précipitations  Vent > 20 kt
SIGMETs :   Divers  Orages  Givrage  Turbulence  Onde Orograph.  Cendres Volcan.







- Altitude de l'aérodrome : 296 ft
- Code IATA : GKE


ETNG - Geilenkirchen

DERNIER METAR :
  • 231550Z 24008KT 9999 FEW026 BKN040 13/09 Q1020 NOSIG

METARs EXPIRÉS :
  • 231450Z 24009KT 9999 FEW026 BKN050 14/09 Q1020 NOSIG
  • 231350Z 26013KT 9999 FEW025 BKN045 14/09 Q1019 NOSIG

TAF TAF ETNG
Valide du 23 à 15h jusqu'au 24 à 06h UTC


231400Z 2315/2406 24010G18KT 9999 SCT022 BKN050
TEMPO 2315/2317 27012G23KT
BECMG 2318/2320 21007KT BKN014
TEMPO 2320/2406 5000 -RADZ BKN009
Pas de NOTAMs connus pour ce terrain.



MET'MAP, la Météo Aéronautique d'un coup d'oeil ! - Copyright ORBIFLY Décembre 2007 - Disclaimer

ORBIFLY MET'MAP TEAM :

Programmation & Développement : Alexandra Zaïnal
Conception & Développement : Baudouin d'Aumeries
Co-Programmation & Développement : Marc-Olivier Méhu
Soutien technique & logistique : Manuel Goepfert

Contact : metmap@orbifly.com




SOURCES & CREDITS :

   NOAA